createdAt,value
2019-02-19T00:01:02.792Z,12.10
2019-02-19T00:03:32.324Z,11.50
2019-02-19T00:06:02.184Z,13.07
2019-02-19T00:08:31.749Z,11.37
2019-02-19T00:11:02.063Z,11.70
2019-02-19T00:13:32.057Z,11.80
2019-02-19T00:16:01.574Z,11.23
2019-02-19T00:18:31.075Z,11.50
2019-02-19T00:21:00.612Z,11.20
2019-02-19T00:23:30.507Z,11.60
2019-02-19T00:26:00.126Z,12.23
2019-02-19T00:28:29.656Z,11.80
2019-02-19T00:30:59.203Z,11.10
2019-02-19T00:33:28.742Z,11.20
2019-02-19T00:35:58.267Z,11.20
2019-02-19T00:38:27.810Z,10.83
2019-02-19T00:40:57.360Z,11.53
2019-02-19T00:43:32.608Z,11.33
2019-02-19T00:46:02.452Z,11.00
2019-02-19T00:48:31.976Z,11.93
2019-02-19T00:51:01.890Z,10.87
2019-02-19T00:53:31.414Z,10.87
2019-02-19T00:56:01.042Z,10.67
2019-02-19T00:58:30.519Z,10.60
2019-02-19T01:01:00.453Z,11.90
2019-02-19T01:03:30.050Z,11.37
2019-02-19T01:05:59.628Z,11.93
2019-02-19T01:08:29.583Z,11.40
2019-02-19T01:10:59.124Z,11.00
2019-02-19T01:13:28.654Z,11.30
2019-02-19T01:15:58.195Z,12.40
2019-02-19T01:18:27.738Z,14.43
2019-02-19T01:20:57.275Z,12.00
2019-02-19T01:23:26.739Z,13.87
2019-02-19T01:25:56.629Z,14.30
2019-02-19T01:28:26.148Z,13.60
2019-02-19T01:30:55.692Z,13.57
2019-02-19T01:33:25.260Z,14.57
2019-02-19T01:35:54.959Z,14.60
2019-02-19T01:38:24.464Z,13.80
2019-02-19T01:40:54.825Z,15.30
2019-02-19T01:43:24.349Z,15.73
2019-02-19T01:45:53.912Z,16.87
2019-02-19T01:48:23.433Z,15.73
2019-02-19T01:50:53.284Z,17.70
2019-02-19T01:53:22.795Z,16.90
2019-02-19T01:55:52.295Z,17.63
2019-02-19T01:58:22.440Z,18.07
2019-02-19T02:00:51.961Z,18.50
2019-02-19T02:03:21.878Z,18.50
2019-02-19T02:05:51.861Z,19.00
2019-02-19T02:08:21.404Z,19.20
2019-02-19T02:10:50.896Z,21.13
2019-02-19T02:13:20.452Z,20.20
2019-02-19T02:15:50.023Z,20.93
2019-02-19T02:18:19.540Z,22.27
2019-02-19T02:20:49.042Z,24.43
2019-02-19T02:23:18.508Z,24.57
2019-02-19T02:25:48.066Z,24.37
2019-02-19T02:28:17.616Z,24.90
2019-02-19T02:30:47.131Z,23.63
2019-02-19T02:33:16.628Z,26.67
2019-02-19T02:35:46.161Z,25.90
2019-02-19T02:38:15.679Z,27.10
2019-02-19T02:40:45.206Z,26.87
2019-02-19T02:43:14.714Z,24.40
2019-02-19T02:45:52.911Z,26.87
2019-02-19T02:48:15.805Z,24.70
2019-02-19T02:50:45.300Z,27.60
2019-02-19T02:53:14.860Z,27.50
2019-02-19T02:55:44.385Z,27.87
2019-02-19T02:58:13.963Z,26.37
2019-02-19T03:00:43.602Z,25.97
2019-02-19T03:03:13.161Z,29.27
2019-02-19T03:06:01.795Z,26.97
2019-02-19T03:08:31.362Z,28.80
2019-02-19T03:11:00.882Z,27.80
2019-02-19T03:13:31.308Z,28.27
2019-02-19T03:16:02.694Z,28.83
2019-02-19T03:18:32.004Z,28.90
2019-02-19T03:21:01.648Z,31.13
2019-02-19T03:23:31.547Z,30.63
2019-02-19T03:26:01.401Z,33.87
2019-02-19T03:28:31.830Z,33.20
2019-02-19T03:31:01.376Z,35.77
2019-02-19T03:33:30.865Z,34.60
2019-02-19T03:36:00.407Z,34.10
2019-02-19T03:38:29.907Z,33.00
2019-02-19T03:40:59.487Z,31.27
2019-02-19T03:43:28.978Z,32.07
2019-02-19T03:45:58.517Z,31.73
2019-02-19T03:48:28.062Z,31.60
2019-02-19T03:50:57.609Z,30.53
2019-02-19T03:53:27.123Z,30.70
2019-02-19T03:55:56.621Z,30.00
2019-02-19T03:58:26.108Z,31.23
2019-02-19T04:00:56.041Z,29.40
2019-02-19T04:03:25.623Z,28.63
2019-02-19T04:05:55.121Z,29.57
2019-02-19T04:08:24.689Z,28.73
2019-02-19T04:10:54.198Z,27.23
2019-02-19T04:13:23.744Z,27.77
2019-02-19T04:15:53.247Z,27.37
2019-02-19T04:18:22.796Z,27.33
2019-02-19T04:20:52.698Z,28.50
2019-02-19T04:23:22.249Z,30.07
2019-02-19T04:25:52.187Z,27.57
2019-02-19T04:28:22.107Z,27.40
2019-02-19T04:30:51.610Z,29.80
2019-02-19T04:33:21.114Z,28.70
2019-02-19T04:35:50.642Z,29.97
2019-02-19T04:38:20.627Z,30.00
2019-02-19T04:40:50.129Z,31.07
2019-02-19T04:43:19.641Z,30.17
2019-02-19T04:45:49.152Z,32.87
2019-02-19T04:48:18.631Z,30.80
2019-02-19T04:50:48.154Z,31.83
2019-02-19T04:53:17.793Z,31.90
2019-02-19T04:55:47.284Z,32.03
2019-02-19T04:58:16.821Z,33.10
2019-02-19T05:00:46.334Z,28.50
2019-02-19T05:03:16.356Z,30.40
2019-02-19T05:05:45.860Z,28.43
2019-02-19T05:08:15.409Z,33.17
2019-02-19T05:10:45.227Z,29.07
2019-02-19T05:13:14.754Z,30.77
2019-02-19T05:15:44.273Z,29.67
2019-02-19T05:18:14.234Z,30.77
2019-02-19T05:20:43.969Z,29.13
2019-02-19T05:23:13.453Z,31.00
2019-02-19T05:25:43.028Z,29.27
2019-02-19T05:28:12.951Z,29.70
2019-02-19T05:30:43.144Z,29.00
2019-02-19T05:33:12.794Z,29.67
2019-02-19T05:35:42.432Z,29.80
2019-02-19T05:38:11.990Z,30.17
2019-02-19T05:40:42.239Z,30.70
2019-02-19T05:43:12.215Z,27.00
2019-02-19T05:45:42.109Z,27.50
2019-02-19T05:48:11.700Z,26.20
2019-02-19T05:50:41.190Z,27.67
2019-02-19T05:53:11.307Z,26.23
2019-02-19T05:55:40.856Z,27.90
2019-02-19T05:58:10.715Z,26.57
2019-02-19T06:00:41.924Z,27.80
2019-02-19T06:03:11.974Z,27.73
2019-02-19T06:05:41.455Z,26.23
2019-02-19T06:08:11.271Z,26.17
2019-02-19T06:10:40.797Z,25.43
2019-02-19T06:13:10.300Z,26.20
2019-02-19T06:15:40.214Z,26.10
2019-02-19T06:18:10.665Z,26.03
2019-02-19T06:20:40.198Z,25.40
2019-02-19T06:23:10.248Z,25.33
2019-02-19T06:25:40.105Z,24.60
2019-02-19T06:28:10.035Z,26.17
2019-02-19T06:30:39.729Z,25.80
2019-02-19T06:33:09.208Z,25.00
2019-02-19T06:35:39.091Z,26.70
2019-02-19T06:38:08.819Z,25.60
2019-02-19T06:40:38.278Z,26.20
2019-02-19T06:43:07.786Z,25.13
2019-02-19T06:45:37.320Z,27.93
2019-02-19T06:48:06.846Z,27.17
2019-02-19T06:50:36.338Z,25.33
2019-02-19T06:53:05.864Z,25.43
2019-02-19T06:55:35.819Z,25.60
2019-02-19T06:58:05.343Z,25.40
2019-02-19T07:00:34.907Z,24.10
2019-02-19T07:03:19.341Z,25.20
2019-02-19T07:05:49.229Z,24.27
2019-02-19T07:08:18.792Z,24.80
2019-02-19T07:10:48.661Z,24.77
2019-02-19T07:13:18.193Z,26.93
2019-02-19T07:15:47.739Z,25.50
2019-02-19T07:18:17.261Z,25.70
2019-02-19T07:20:46.812Z,25.23
2019-02-19T07:23:16.310Z,24.10
2019-02-19T07:25:45.848Z,23.40
2019-02-19T07:28:15.395Z,23.23
2019-02-19T07:30:44.931Z,22.43
2019-02-19T07:33:14.498Z,21.70
2019-02-19T07:35:44.518Z,22.47
2019-02-19T07:38:13.995Z,21.23
2019-02-19T07:40:43.955Z,23.23
2019-02-19T07:43:13.480Z,21.77
2019-02-19T07:45:43.445Z,21.40
2019-02-19T07:48:12.956Z,18.53
2019-02-19T07:50:42.588Z,18.70
2019-02-19T07:53:12.125Z,19.93
2019-02-19T07:55:41.653Z,18.93
2019-02-19T07:58:11.175Z,19.83
2019-02-19T08:00:41.017Z,20.93
2019-02-19T08:03:10.865Z,18.17
2019-02-19T08:05:41.160Z,16.70
2019-02-19T08:08:10.729Z,17.57
2019-02-19T08:10:41.280Z,17.67
2019-02-19T08:13:10.819Z,17.67
2019-02-19T08:15:40.341Z,17.50
2019-02-19T08:18:10.722Z,16.80
2019-02-19T08:20:40.283Z,16.53
2019-02-19T08:23:10.298Z,15.27
2019-02-19T08:25:39.824Z,15.77
2019-02-19T08:28:09.372Z,18.10
2019-02-19T08:30:38.940Z,14.80
2019-02-19T08:33:08.556Z,15.07
2019-02-19T08:35:38.046Z,15.90
2019-02-19T08:38:08.005Z,16.10
2019-02-19T08:40:37.517Z,16.30
2019-02-19T08:43:07.044Z,15.40
2019-02-19T08:45:36.580Z,14.27
2019-02-19T08:48:06.115Z,14.50
2019-02-19T08:50:35.651Z,14.50
2019-02-19T08:53:05.201Z,14.37
2019-02-19T08:55:34.962Z,14.67
2019-02-19T08:58:05.409Z,13.10
2019-02-19T09:00:34.894Z,12.50
2019-02-19T09:03:04.952Z,15.80
2019-02-19T09:05:34.472Z,12.87
2019-02-19T09:08:04.440Z,12.67
2019-02-19T09:10:34.028Z,12.93
2019-02-19T09:13:04.107Z,10.87
2019-02-19T09:15:33.661Z,11.17
2019-02-19T09:18:03.177Z,12.00
2019-02-19T09:20:32.838Z,11.87
2019-02-19T09:23:02.745Z,11.70
2019-02-19T09:25:32.696Z,10.77
2019-02-19T09:28:02.211Z,13.50
2019-02-19T09:30:31.713Z,11.30
2019-02-19T09:33:02.084Z,11.70
2019-02-19T09:35:31.740Z,11.13
2019-02-19T09:38:01.291Z,11.03
2019-02-19T09:40:31.113Z,14.20
2019-02-19T09:43:00.682Z,16.07
2019-02-19T09:45:30.158Z,11.77
2019-02-19T09:48:01.429Z,10.10
2019-02-19T09:50:30.850Z,10.60
2019-02-19T09:53:00.511Z,12.60
2019-02-19T09:55:30.406Z,11.70
2019-02-19T09:58:01.040Z,12.57
2019-02-19T10:00:30.898Z,11.07
2019-02-19T10:03:00.457Z,10.50
2019-02-19T10:05:30.359Z,10.63
2019-02-19T10:08:00.244Z,11.10
2019-02-19T10:10:29.733Z,10.50
2019-02-19T10:12:59.255Z,11.87
2019-02-19T10:15:28.789Z,12.17
2019-02-19T10:17:58.738Z,10.80
2019-02-19T10:20:28.628Z,10.23
2019-02-19T10:22:58.164Z,10.60
2019-02-19T10:25:28.033Z,9.70
2019-02-19T10:27:57.572Z,10.13
2019-02-19T10:30:27.099Z,10.57
2019-02-19T10:32:56.770Z,11.37
2019-02-19T10:35:26.256Z,11.40
2019-02-19T10:37:56.061Z,9.30
2019-02-19T10:40:25.571Z,10.53
2019-02-19T10:42:55.244Z,10.60
2019-02-19T10:45:24.780Z,10.30
2019-02-19T10:47:54.252Z,10.50
2019-02-19T10:50:24.214Z,9.80
2019-02-19T10:52:53.740Z,9.73
2019-02-19T10:55:23.383Z,10.57
2019-02-19T10:57:52.915Z,9.90
2019-02-19T11:00:23.525Z,10.00
2019-02-19T11:02:53.080Z,11.03
2019-02-19T11:05:22.619Z,10.70
2019-02-19T11:07:52.173Z,9.80
2019-02-19T11:10:21.700Z,9.30
2019-02-19T11:12:51.201Z,8.93
2019-02-19T11:15:21.679Z,10.17
2019-02-19T11:17:51.968Z,9.70
2019-02-19T11:20:21.502Z,10.00
2019-02-19T11:22:51.364Z,10.67
2019-02-19T11:25:21.005Z,9.60
2019-02-19T11:27:50.510Z,9.70
2019-02-19T11:30:20.591Z,10.53
2019-02-19T11:32:50.354Z,10.77
2019-02-19T11:35:20.248Z,9.97
2019-02-19T11:37:49.739Z,10.70
2019-02-19T11:40:19.279Z,10.57
2019-02-19T11:42:48.836Z,11.80
2019-02-19T11:45:18.368Z,10.97
2019-02-19T11:47:48.230Z,11.87
2019-02-19T11:50:18.065Z,11.90
2019-02-19T11:52:47.581Z,11.23
2019-02-19T11:55:17.160Z,12.70
2019-02-19T11:57:47.045Z,11.80
2019-02-19T12:00:19.714Z,11.93
2019-02-19T12:02:49.221Z,11.50
2019-02-19T12:05:18.741Z,12.63
2019-02-19T12:07:48.311Z,11.37
2019-02-19T12:10:18.144Z,10.47
2019-02-19T12:12:48.032Z,11.60
2019-02-19T12:15:19.264Z,11.70
2019-02-19T12:17:48.923Z,11.33
2019-02-19T12:20:18.427Z,12.30
2019-02-19T12:22:48.589Z,11.60
2019-02-19T12:25:18.098Z,12.77
2019-02-19T12:27:47.625Z,13.23
2019-02-19T12:30:17.188Z,12.33
2019-02-19T12:32:46.680Z,12.03
2019-02-19T12:35:16.199Z,11.63
2019-02-19T12:37:45.714Z,11.90
2019-02-19T12:40:15.362Z,11.33
2019-02-19T12:42:45.213Z,10.30
2019-02-19T12:45:14.924Z,9.50
2019-02-19T12:47:44.403Z,11.00
2019-02-19T12:50:14.083Z,10.10
2019-02-19T12:52:43.626Z,9.33
2019-02-19T12:55:13.145Z,8.47
2019-02-19T12:57:42.662Z,8.63
2019-02-19T13:00:13.953Z,8.73
2019-02-19T13:02:44.211Z,8.50
2019-02-19T13:05:14.255Z,7.83
2019-02-19T13:07:43.784Z,8.00
2019-02-19T13:10:13.426Z,7.87
2019-02-19T13:12:42.952Z,6.83
2019-02-19T13:15:13.761Z,7.60
2019-02-19T13:17:43.276Z,7.27
2019-02-19T13:20:13.476Z,7.10
2019-02-19T13:22:42.967Z,7.70
2019-02-19T13:25:12.740Z,7.77
2019-02-19T13:27:42.236Z,9.00
2019-02-19T13:30:13.944Z,6.73
2019-02-19T13:32:43.511Z,8.30
2019-02-19T13:35:13.392Z,8.37
2019-02-19T13:37:43.050Z,6.30
2019-02-19T13:40:13.108Z,7.13
2019-02-19T13:42:42.673Z,6.60
2019-02-19T13:45:13.580Z,7.80
2019-02-19T13:47:43.050Z,8.30
2019-02-19T13:50:15.336Z,7.83
2019-02-19T13:53:03.728Z,8.20
2019-02-19T13:55:36.353Z,7.60
2019-02-19T13:58:05.834Z,7.60
2019-02-19T14:00:38.123Z,7.03
2019-02-19T14:03:07.650Z,7.50
2019-02-19T14:05:37.304Z,6.90
2019-02-19T14:08:14.207Z,7.20
2019-02-19T14:10:37.988Z,6.33
2019-02-19T14:13:07.507Z,6.67
2019-02-19T14:16:05.461Z,6.53
2019-02-19T14:18:53.905Z,6.20
2019-02-19T14:21:54.688Z,5.43
2019-02-19T14:24:58.530Z,5.50
2019-02-19T14:27:47.009Z,5.50
2019-02-19T14:30:34.170Z,6.37
2019-02-19T14:33:23.461Z,6.53
2019-02-19T14:36:04.862Z,6.73
2019-02-19T14:39:05.781Z,7.47
2019-02-19T14:41:52.608Z,4.83
2019-02-19T14:44:43.828Z,5.27
2019-02-19T14:47:35.012Z,5.37
2019-02-19T14:50:32.671Z,6.17
2019-02-19T14:53:30.282Z,4.70
2019-02-19T14:56:25.034Z,4.97
2019-02-19T14:59:12.593Z,4.87
2019-02-19T15:02:01.059Z,4.53
2019-02-19T15:04:53.119Z,4.87
2019-02-19T15:07:44.464Z,4.80
2019-02-19T15:10:41.201Z,4.27
2019-02-19T15:13:28.375Z,5.13
2019-02-19T15:16:15.458Z,5.57
2019-02-19T15:18:54.130Z,4.97
2019-02-19T15:21:41.302Z,5.30
2019-02-19T15:24:32.502Z,5.50
2019-02-19T15:27:21.352Z,5.07
2019-02-19T15:30:04.138Z,5.27
2019-02-19T15:32:52.892Z,4.47
2019-02-19T15:35:40.252Z,4.93
2019-02-19T15:38:19.956Z,4.60
2019-02-19T15:41:07.388Z,5.07
2019-02-19T15:43:52.202Z,4.60
2019-02-19T15:46:29.117Z,3.60
2019-02-19T15:49:22.173Z,4.30
2019-02-19T15:52:13.000Z,4.47
2019-02-19T15:55:03.029Z,4.10
2019-02-19T15:58:04.759Z,3.77
2019-02-19T16:00:43.512Z,3.53
2019-02-19T16:03:33.821Z,4.47
2019-02-19T16:06:22.054Z,3.80
2019-02-19T16:08:59.085Z,3.90
2019-02-19T16:11:50.780Z,3.40
2019-02-19T16:14:42.492Z,3.80
2019-02-19T16:17:32.074Z,4.93
2019-02-19T16:20:21.316Z,4.70
2019-02-19T16:23:09.988Z,4.80
2019-02-19T16:25:58.424Z,4.17
2019-02-19T16:29:02.405Z,3.93
2019-02-19T16:31:45.657Z,4.33
2019-02-19T16:34:37.302Z,4.03
2019-02-19T16:37:22.571Z,4.67
2019-02-19T16:40:17.761Z,3.80
2019-02-19T16:43:21.209Z,3.80
2019-02-19T16:46:10.085Z,3.93
2019-02-19T16:49:08.216Z,3.60
2019-02-19T16:51:46.195Z,4.00
2019-02-19T16:54:21.280Z,4.50
2019-02-19T16:57:08.763Z,4.40
2019-02-19T17:00:06.313Z,4.43
2019-02-19T17:03:07.106Z,3.67
2019-02-19T17:05:58.394Z,4.33
2019-02-19T17:08:45.443Z,3.63
2019-02-19T17:11:37.733Z,3.90
2019-02-19T17:14:38.658Z,3.83
2019-02-19T17:17:27.433Z,4.13
2019-02-19T17:20:21.243Z,3.20
2019-02-19T17:23:03.782Z,4.00
2019-02-19T17:26:01.322Z,3.20
2019-02-19T17:28:40.936Z,3.33
2019-02-19T17:31:29.412Z,5.23
2019-02-19T17:34:20.744Z,3.80
2019-02-19T17:37:06.354Z,4.00
2019-02-19T17:39:53.714Z,3.20
2019-02-19T17:42:57.340Z,3.53
2019-02-19T17:46:01.165Z,4.13
2019-02-19T17:48:58.448Z,4.60
2019-02-19T17:51:59.683Z,5.23
2019-02-19T17:54:50.957Z,5.40
2019-02-19T17:57:39.506Z,4.63
2019-02-19T18:00:19.428Z,4.00
2019-02-19T18:03:06.649Z,4.10
2019-02-19T18:05:46.000Z,3.93
2019-02-19T18:08:29.508Z,4.23
2019-02-19T18:11:16.975Z,4.60
2019-02-19T18:14:11.698Z,3.90
2019-02-19T18:16:54.169Z,3.43
2019-02-19T18:19:23.691Z,3.90
2019-02-19T18:21:53.194Z,4.10
2019-02-19T18:24:22.705Z,4.00
2019-02-19T18:26:52.289Z,4.17
2019-02-19T18:29:21.945Z,4.90
2019-02-19T18:31:51.448Z,4.83
2019-02-19T18:34:20.985Z,4.50
2019-02-19T18:36:50.516Z,4.00
2019-02-19T18:39:20.030Z,4.40
2019-02-19T18:41:49.531Z,4.00
2019-02-19T18:44:19.082Z,4.20
2019-02-19T18:46:48.920Z,4.40
2019-02-19T18:49:18.460Z,4.10
2019-02-19T18:51:48.336Z,4.40
2019-02-19T18:54:18.880Z,3.77
2019-02-19T18:56:48.391Z,4.00
2019-02-19T18:59:19.154Z,3.80
2019-02-19T19:01:48.636Z,4.50
2019-02-19T19:04:18.152Z,3.97
2019-02-19T19:06:47.725Z,3.30
2019-02-19T19:09:17.194Z,3.43
2019-02-19T19:11:47.124Z,3.17
2019-02-19T19:14:17.082Z,3.10
2019-02-19T19:16:46.601Z,3.10
2019-02-19T19:19:16.128Z,5.10
2019-02-19T19:21:45.789Z,3.60
2019-02-19T19:24:15.579Z,3.83
2019-02-19T19:26:45.111Z,4.70
2019-02-19T19:29:15.018Z,4.13
2019-02-19T19:31:44.914Z,4.37
2019-02-19T19:34:14.454Z,3.83
2019-02-19T19:36:44.771Z,4.00
2019-02-19T19:39:14.762Z,3.60
2019-02-19T19:41:44.407Z,4.83
2019-02-19T19:44:14.384Z,4.90
2019-02-19T19:46:43.919Z,3.73
2019-02-19T19:49:13.485Z,3.50
2019-02-19T19:51:43.083Z,3.37
2019-02-19T19:54:12.599Z,4.33
2019-02-19T19:56:42.478Z,3.37
2019-02-19T19:59:12.370Z,3.23
2019-02-19T20:01:42.304Z,4.30
2019-02-19T20:04:12.216Z,3.40
2019-02-19T20:06:42.045Z,3.60
2019-02-19T20:09:12.078Z,3.50
2019-02-19T20:11:42.352Z,3.97
2019-02-19T20:14:12.172Z,5.23
2019-02-19T20:16:41.632Z,5.30
2019-02-19T20:19:11.598Z,4.20
2019-02-19T20:21:41.544Z,4.50
2019-02-19T20:24:11.826Z,4.57
2019-02-19T20:26:41.379Z,4.13
2019-02-19T20:29:11.607Z,4.20
2019-02-19T20:31:41.466Z,4.23
2019-02-19T20:34:11.005Z,4.00
2019-02-19T20:36:40.505Z,5.07
2019-02-19T20:39:10.131Z,4.40
2019-02-19T20:41:39.987Z,5.50
2019-02-19T20:44:09.908Z,5.60
2019-02-19T20:46:39.827Z,5.90
2019-02-19T20:49:09.329Z,4.20
2019-02-19T20:51:39.387Z,5.73
2019-02-19T20:54:08.853Z,7.43
2019-02-19T20:56:38.354Z,4.90
2019-02-19T20:59:07.895Z,4.20
2019-02-19T21:01:37.439Z,5.73
2019-02-19T21:04:07.402Z,4.93
2019-02-19T21:06:36.951Z,5.67
2019-02-19T21:09:07.541Z,5.00
2019-02-19T21:11:37.060Z,4.47
2019-02-19T21:14:06.570Z,5.77
2019-02-19T21:16:36.114Z,5.43
2019-02-19T21:19:05.697Z,6.20
2019-02-19T21:21:35.501Z,5.80
2019-02-19T21:24:05.056Z,6.03
2019-02-19T21:26:34.983Z,6.10
2019-02-19T21:29:05.361Z,7.03
2019-02-19T21:31:38.125Z,6.90
2019-02-19T21:34:08.160Z,5.20
2019-02-19T21:36:37.695Z,5.53
2019-02-19T21:39:08.157Z,5.03
2019-02-19T21:41:38.171Z,5.00
2019-02-19T21:44:08.008Z,4.80
2019-02-19T21:46:37.480Z,4.90
2019-02-19T21:49:07.874Z,4.47
2019-02-19T21:51:38.516Z,7.27
2019-02-19T21:54:08.255Z,4.93
2019-02-19T21:56:37.768Z,5.20
2019-02-19T21:59:07.421Z,4.47
2019-02-19T22:01:37.028Z,4.60
2019-02-19T22:04:06.588Z,4.60
2019-02-19T22:06:36.348Z,5.17
2019-02-19T22:09:07.948Z,4.30
2019-02-19T22:11:37.513Z,4.57
2019-02-19T22:14:07.023Z,4.33
2019-02-19T22:16:36.587Z,4.90
2019-02-19T22:19:06.298Z,4.67
2019-02-19T22:21:44.016Z,6.00
2019-02-19T22:24:13.544Z,5.00
2019-02-19T22:26:44.137Z,4.50
2019-02-19T22:29:13.781Z,5.00
2019-02-19T22:31:43.277Z,3.80
2019-02-19T22:34:13.131Z,4.50
2019-02-19T22:36:42.991Z,3.87
2019-02-19T22:39:12.517Z,3.60
2019-02-19T22:41:42.101Z,3.80
2019-02-19T22:44:11.628Z,3.70
2019-02-19T22:46:41.161Z,4.20
2019-02-19T22:49:10.797Z,4.10
2019-02-19T22:51:40.311Z,5.23
2019-02-19T22:54:15.035Z,4.60
2019-02-19T22:56:46.149Z,3.60
2019-02-19T22:59:15.762Z,4.80
2019-02-19T23:01:54.269Z,4.33
2019-02-19T23:04:24.520Z,4.87
2019-02-19T23:06:54.082Z,3.87
2019-02-19T23:09:23.774Z,4.43
2019-02-19T23:11:53.467Z,4.97
2019-02-19T23:14:23.562Z,4.47
2019-02-19T23:16:53.422Z,4.77
2019-02-19T23:19:23.261Z,4.33
2019-02-19T23:21:53.232Z,4.67
2019-02-19T23:24:22.950Z,4.20
2019-02-19T23:26:52.521Z,3.83
2019-02-19T23:29:22.067Z,4.50
2019-02-19T23:31:51.580Z,5.03
2019-02-19T23:34:21.105Z,4.40
2019-02-19T23:37:00.884Z,4.80
2019-02-19T23:39:30.468Z,4.77
2019-02-19T23:42:00.064Z,4.93
2019-02-19T23:44:29.591Z,5.67
2019-02-19T23:46:59.212Z,4.90
2019-02-19T23:49:28.741Z,5.60
2019-02-19T23:51:58.265Z,5.30
2019-02-19T23:54:27.872Z,5.70
2019-02-19T23:56:57.437Z,5.87
2019-02-19T23:59:26.924Z,5.77
